sensor_id;sensor_type;location;lat;lon;timestamp;P1;durP1;ratioP1;P2;durP2;ratioP2
5869;SDS011;2961;47.702;9.410;2023-02-01T00:02:00;8.37;;;5.93;;
5869;SDS011;2961;47.702;9.410;2023-02-01T00:04:27;8.10;;;5.63;;
5869;SDS011;2961;47.702;9.410;2023-02-01T00:06:54;8.43;;;6.07;;
5869;SDS011;2961;47.702;9.410;2023-02-01T00:09:22;10.33;;;6.30;;
5869;SDS011;2961;47.702;9.410;2023-02-01T00:11:49;7.73;;;5.40;;
5869;SDS011;2961;47.702;9.410;2023-02-01T00:14:16;10.30;;;5.93;;
5869;SDS011;2961;47.702;9.410;2023-02-01T00:16:43;10.20;;;5.90;;
5869;SDS011;2961;47.702;9.410;2023-02-01T00:19:11;10.47;;;6.20;;
5869;SDS011;2961;47.702;9.410;2023-02-01T00:21:38;15.27;;;6.23;;
5869;SDS011;2961;47.702;9.410;2023-02-01T00:24:06;11.40;;;6.07;;
5869;SDS011;2961;47.702;9.410;2023-02-01T00:26:36;10.80;;;5.93;;
5869;SDS011;2961;47.702;9.410;2023-02-01T00:29:05;6.93;;;5.40;;
5869;SDS011;2961;47.702;9.410;2023-02-01T00:31:35;9.00;;;5.40;;
5869;SDS011;2961;47.702;9.410;2023-02-01T00:34:01;9.10;;;5.67;;
5869;SDS011;2961;47.702;9.410;2023-02-01T00:36:28;8.57;;;5.10;;
5869;SDS011;2961;47.702;9.410;2023-02-01T00:38:56;7.20;;;5.23;;
5869;SDS011;2961;47.702;9.410;2023-02-01T00:41:23;10.53;;;5.10;;
5869;SDS011;2961;47.702;9.410;2023-02-01T00:43:51;11.73;;;5.87;;
5869;SDS011;2961;47.702;9.410;2023-02-01T00:46:18;7.83;;;4.80;;
5869;SDS011;2961;47.702;9.410;2023-02-01T00:48:46;7.70;;;4.83;;
5869;SDS011;2961;47.702;9.410;2023-02-01T00:51:14;7.00;;;4.80;;
5869;SDS011;2961;47.702;9.410;2023-02-01T00:53:42;7.47;;;5.30;;
5869;SDS011;2961;47.702;9.410;2023-02-01T00:56:09;5.90;;;4.47;;
5869;SDS011;2961;47.702;9.410;2023-02-01T00:58:36;8.63;;;5.83;;
5869;SDS011;2961;47.702;9.410;2023-02-01T01:01:05;11.43;;;5.57;;
5869;SDS011;2961;47.702;9.410;2023-02-01T01:03:34;7.40;;;5.00;;
5869;SDS011;2961;47.702;9.410;2023-02-01T01:06:03;5.27;;;4.43;;
5869;SDS011;2961;47.702;9.410;2023-02-01T01:08:31;5.60;;;4.30;;
5869;SDS011;2961;47.702;9.410;2023-02-01T01:10:58;12.10;;;5.33;;
5869;SDS011;2961;47.702;9.410;2023-02-01T01:13:29;8.60;;;5.03;;
5869;SDS011;2961;47.702;9.410;2023-02-01T01:15:56;9.10;;;4.80;;
5869;SDS011;2961;47.702;9.410;2023-02-01T01:18:28;6.20;;;5.17;;
5869;SDS011;2961;47.702;9.410;2023-02-01T01:20:55;8.17;;;4.90;;
5869;SDS011;2961;47.702;9.410;2023-02-01T01:23:22;7.83;;;5.10;;
5869;SDS011;2961;47.702;9.410;2023-02-01T01:25:50;10.87;;;4.73;;
5869;SDS011;2961;47.702;9.410;2023-02-01T01:28:17;5.63;;;4.53;;
5869;SDS011;2961;47.702;9.410;2023-02-01T01:30:43;11.30;;;5.53;;
5869;SDS011;2961;47.702;9.410;2023-02-01T01:33:10;6.60;;;4.93;;
5869;SDS011;2961;47.702;9.410;2023-02-01T01:35:38;9.30;;;5.30;;
5869;SDS011;2961;47.702;9.410;2023-02-01T01:38:05;8.10;;;5.10;;
5869;SDS011;2961;47.702;9.410;2023-02-01T01:40:32;5.73;;;4.63;;
5869;SDS011;2961;47.702;9.410;2023-02-01T01:42:59;6.73;;;4.90;;
5869;SDS011;2961;47.702;9.410;2023-02-01T01:45:27;5.13;;;4.50;;
5869;SDS011;2961;47.702;9.410;2023-02-01T01:47:56;6.83;;;5.03;;
5869;SDS011;2961;47.702;9.410;2023-02-01T01:50:26;6.03;;;5.37;;
5869;SDS011;2961;47.702;9.410;2023-02-01T01:52:57;9.57;;;4.93;;
5869;SDS011;2961;47.702;9.410;2023-02-01T01:55:27;5.90;;;4.50;;
5869;SDS011;2961;47.702;9.410;2023-02-01T01:57:58;6.00;;;4.67;;
5869;SDS011;2961;47.702;9.410;2023-02-01T02:00:28;5.00;;;4.50;;
5869;SDS011;2961;47.702;9.410;2023-02-01T02:02:57;8.90;;;5.43;;
5869;SDS011;2961;47.702;9.410;2023-02-01T02:05:29;9.90;;;4.90;;
5869;SDS011;2961;47.702;9.410;2023-02-01T02:07:58;6.23;;;4.80;;
5869;SDS011;2961;47.702;9.410;2023-02-01T02:10:26;9.40;;;5.43;;
5869;SDS011;2961;47.702;9.410;2023-02-01T02:13:08;8.43;;;5.87;;
5869;SDS011;2961;47.702;9.410;2023-02-01T02:15:36;4.73;;;4.30;;
5869;SDS011;2961;47.702;9.410;2023-02-01T02:18:08;8.57;;;5.20;;
5869;SDS011;2961;47.702;9.410;2023-02-01T02:20:52;9.90;;;5.20;;
5869;SDS011;2961;47.702;9.410;2023-02-01T02:23:51;5.30;;;4.80;;
5869;SDS011;2961;47.702;9.410;2023-02-01T02:26:47;6.33;;;4.50;;
5869;SDS011;2961;47.702;9.410;2023-02-01T02:29:42;7.53;;;5.00;;
5869;SDS011;2961;47.702;9.410;2023-02-01T02:32:48;11.30;;;5.50;;
5869;SDS011;2961;47.702;9.410;2023-02-01T02:35:44;7.67;;;5.30;;
5869;SDS011;2961;47.702;9.410;2023-02-01T02:38:16;6.23;;;5.03;;
5869;SDS011;2961;47.702;9.410;2023-02-01T02:40:50;6.87;;;5.00;;
5869;SDS011;2961;47.702;9.410;2023-02-01T02:43:23;10.93;;;5.90;;
5869;SDS011;2961;47.702;9.410;2023-02-01T02:46:16;6.60;;;5.17;;
5869;SDS011;2961;47.702;9.410;2023-02-01T02:49:05;7.80;;;5.00;;
5869;SDS011;2961;47.702;9.410;2023-02-01T02:51:40;8.53;;;5.70;;
5869;SDS011;2961;47.702;9.410;2023-02-01T02:54:28;10.20;;;5.37;;
5869;SDS011;2961;47.702;9.410;2023-02-01T02:57:13;8.03;;;6.13;;
5869;SDS011;2961;47.702;9.410;2023-02-01T03:00:03;10.90;;;6.20;;
5869;SDS011;2961;47.702;9.410;2023-02-01T03:02:49;7.30;;;5.30;;
5869;SDS011;2961;47.702;9.410;2023-02-01T03:05:35;6.03;;;5.20;;
5869;SDS011;2961;47.702;9.410;2023-02-01T03:08:10;9.53;;;6.10;;
5869;SDS011;2961;47.702;9.410;2023-02-01T03:10:41;7.03;;;5.67;;
5869;SDS011;2961;47.702;9.410;2023-02-01T03:13:14;8.07;;;5.97;;
5869;SDS011;2961;47.702;9.410;2023-02-01T03:15:46;7.60;;;5.43;;
5869;SDS011;2961;47.702;9.410;2023-02-01T03:18:19;9.40;;;6.07;;
5869;SDS011;2961;47.702;9.410;2023-02-01T03:20:52;9.57;;;6.07;;
5869;SDS011;2961;47.702;9.410;2023-02-01T03:23:23;9.50;;;6.13;;
5869;SDS011;2961;47.702;9.410;2023-02-01T03:25:54;11.17;;;7.20;;
5869;SDS011;2961;47.702;9.410;2023-02-01T03:28:24;12.10;;;6.70;;
5869;SDS011;2961;47.702;9.410;2023-02-01T03:30:53;7.90;;;6.00;;
5869;SDS011;2961;47.702;9.410;2023-02-01T03:33:21;10.40;;;6.90;;
5869;SDS011;2961;47.702;9.410;2023-02-01T03:35:54;10.80;;;6.47;;
5869;SDS011;2961;47.702;9.410;2023-02-01T03:38:27;9.00;;;6.17;;
5869;SDS011;2961;47.702;9.410;2023-02-01T03:41:00;11.53;;;7.20;;
5869;SDS011;2961;47.702;9.410;2023-02-01T03:43:36;8.03;;;6.10;;
5869;SDS011;2961;47.702;9.410;2023-02-01T03:46:20;12.40;;;5.93;;
5869;SDS011;2961;47.702;9.410;2023-02-01T03:48:52;13.07;;;6.80;;
5869;SDS011;2961;47.702;9.410;2023-02-01T03:51:21;8.50;;;6.37;;
5869;SDS011;2961;47.702;9.410;2023-02-01T03:53:50;11.63;;;6.63;;
5869;SDS011;2961;47.702;9.410;2023-02-01T03:56:19;11.30;;;6.37;;
5869;SDS011;2961;47.702;9.410;2023-02-01T03:58:50;10.00;;;6.10;;
5869;SDS011;2961;47.702;9.410;2023-02-01T04:01:25;9.60;;;6.20;;
5869;SDS011;2961;47.702;9.410;2023-02-01T04:03:53;6.80;;;5.70;;
5869;SDS011;2961;47.702;9.410;2023-02-01T04:06:20;7.80;;;6.63;;
5869;SDS011;2961;47.702;9.410;2023-02-01T04:08:46;9.23;;;5.50;;
5869;SDS011;2961;47.702;9.410;2023-02-01T04:11:15;7.47;;;6.10;;
5869;SDS011;2961;47.702;9.410;2023-02-01T04:13:42;10.67;;;6.80;;
5869;SDS011;2961;47.702;9.410;2023-02-01T04:16:08;8.97;;;7.30;;
5869;SDS011;2961;47.702;9.410;2023-02-01T04:18:35;11.03;;;7.37;;
5869;SDS011;2961;47.702;9.410;2023-02-01T04:21:02;11.50;;;7.07;;
5869;SDS011;2961;47.702;9.410;2023-02-01T04:23:29;7.20;;;5.40;;
5869;SDS011;2961;47.702;9.410;2023-02-01T04:25:58;9.13;;;6.17;;
5869;SDS011;2961;47.702;9.410;2023-02-01T04:28:27;11.03;;;7.43;;
5869;SDS011;2961;47.702;9.410;2023-02-01T04:30:54;7.40;;;6.60;;
5869;SDS011;2961;47.702;9.410;2023-02-01T04:33:21;7.83;;;6.73;;
5869;SDS011;2961;47.702;9.410;2023-02-01T04:35:48;9.93;;;7.27;;
5869;SDS011;2961;47.702;9.410;2023-02-01T04:38:15;10.20;;;7.23;;
5869;SDS011;2961;47.702;9.410;2023-02-01T04:40:42;12.00;;;7.07;;
5869;SDS011;2961;47.702;9.410;2023-02-01T04:43:09;10.03;;;6.77;;
5869;SDS011;2961;47.702;9.410;2023-02-01T04:45:37;9.80;;;7.23;;
5869;SDS011;2961;47.702;9.410;2023-02-01T04:48:04;8.70;;;6.63;;
5869;SDS011;2961;47.702;9.410;2023-02-01T04:50:31;11.97;;;7.50;;
5869;SDS011;2961;47.702;9.410;2023-02-01T04:52:58;11.23;;;6.93;;
5869;SDS011;2961;47.702;9.410;2023-02-01T04:55:25;10.30;;;6.30;;
5869;SDS011;2961;47.702;9.410;2023-02-01T04:57:52;10.17;;;7.07;;
5869;SDS011;2961;47.702;9.410;2023-02-01T05:00:19;10.77;;;6.90;;
5869;SDS011;2961;47.702;9.410;2023-02-01T05:02:47;12.90;;;7.10;;
5869;SDS011;2961;47.702;9.410;2023-02-01T05:05:14;11.67;;;8.27;;
5869;SDS011;2961;47.702;9.410;2023-02-01T05:07:41;9.50;;;7.20;;
5869;SDS011;2961;47.702;9.410;2023-02-01T05:10:08;12.53;;;6.67;;
5869;SDS011;2961;47.702;9.410;2023-02-01T05:12:35;11.13;;;6.80;;
5869;SDS011;2961;47.702;9.410;2023-02-01T05:15:20;9.57;;;6.73;;
5869;SDS011;2961;47.702;9.410;2023-02-01T05:17:48;11.17;;;7.00;;
5869;SDS011;2961;47.702;9.410;2023-02-01T05:20:15;12.63;;;6.60;;
5869;SDS011;2961;47.702;9.410;2023-02-01T05:22:41;9.10;;;7.17;;
5869;SDS011;2961;47.702;9.410;2023-02-01T05:25:08;10.30;;;6.87;;
5869;SDS011;2961;47.702;9.410;2023-02-01T05:27:35;10.23;;;7.37;;
5869;SDS011;2961;47.702;9.410;2023-02-01T05:30:02;11.70;;;7.67;;
5869;SDS011;2961;47.702;9.410;2023-02-01T05:32:29;12.17;;;7.70;;
5869;SDS011;2961;47.702;9.410;2023-02-01T05:35:12;15.40;;;7.53;;
5869;SDS011;2961;47.702;9.410;2023-02-01T05:37:38;13.50;;;8.47;;
5869;SDS011;2961;47.702;9.410;2023-02-01T05:40:06;10.90;;;6.87;;
5869;SDS011;2961;47.702;9.410;2023-02-01T05:42:33;9.43;;;6.73;;
5869;SDS011;2961;47.702;9.410;2023-02-01T05:45:00;10.47;;;6.97;;
5869;SDS011;2961;47.702;9.410;2023-02-01T05:47:27;14.03;;;7.30;;
5869;SDS011;2961;47.702;9.410;2023-02-01T05:49:53;8.63;;;6.40;;
5869;SDS011;2961;47.702;9.410;2023-02-01T05:52:21;8.83;;;6.60;;
5869;SDS011;2961;47.702;9.410;2023-02-01T05:54:51;9.40;;;6.70;;
5869;SDS011;2961;47.702;9.410;2023-02-01T05:57:18;11.60;;;7.60;;
5869;SDS011;2961;47.702;9.410;2023-02-01T05:59:45;6.97;;;6.10;;
5869;SDS011;2961;47.702;9.410;2023-02-01T06:02:13;14.57;;;7.20;;
5869;SDS011;2961;47.702;9.410;2023-02-01T06:04:40;11.50;;;7.00;;
5869;SDS011;2961;47.702;9.410;2023-02-01T06:07:07;13.67;;;6.73;;
5869;SDS011;2961;47.702;9.410;2023-02-01T06:09:36;10.03;;;6.57;;
5869;SDS011;2961;47.702;9.410;2023-02-01T06:12:04;9.33;;;6.33;;
5869;SDS011;2961;47.702;9.410;2023-02-01T06:14:31;9.43;;;6.90;;
5869;SDS011;2961;47.702;9.410;2023-02-01T06:16:58;11.38;;;7.20;;
5869;SDS011;2961;47.702;9.410;2023-02-01T06:19:24;7.60;;;6.20;;
5869;SDS011;2961;47.702;9.410;2023-02-01T06:21:51;12.50;;;7.40;;
5869;SDS011;2961;47.702;9.410;2023-02-01T06:24:18;8.00;;;6.40;;
5869;SDS011;2961;47.702;9.410;2023-02-01T06:26:46;9.50;;;6.93;;
5869;SDS011;2961;47.702;9.410;2023-02-01T06:29:13;6.93;;;5.53;;
5869;SDS011;2961;47.702;9.410;2023-02-01T06:31:40;12.73;;;5.57;;
5869;SDS011;2961;47.702;9.410;2023-02-01T06:34:07;12.13;;;6.77;;
5869;SDS011;2961;47.702;9.410;2023-02-01T06:36:34;7.97;;;6.50;;
5869;SDS011;2961;47.702;9.410;2023-02-01T06:39:01;13.20;;;5.90;;
5869;SDS011;2961;47.702;9.410;2023-02-01T06:41:28;11.20;;;7.03;;
5869;SDS011;2961;47.702;9.410;2023-02-01T06:43:56;10.23;;;5.80;;
5869;SDS011;2961;47.702;9.410;2023-02-01T06:46:23;16.23;;;7.67;;
5869;SDS011;2961;47.702;9.410;2023-02-01T06:48:50;8.93;;;7.00;;
5869;SDS011;2961;47.702;9.410;2023-02-01T06:51:20;10.20;;;7.23;;
5869;SDS011;2961;47.702;9.410;2023-02-01T06:53:48;10.47;;;6.83;;
5869;SDS011;2961;47.702;9.410;2023-02-01T06:56:15;8.13;;;5.53;;
5869;SDS011;2961;47.702;9.410;2023-02-01T06:58:42;8.83;;;6.57;;
5869;SDS011;2961;47.702;9.410;2023-02-01T07:01:10;8.60;;;6.90;;
5869;SDS011;2961;47.702;9.410;2023-02-01T07:03:37;9.93;;;5.77;;
5869;SDS011;2961;47.702;9.410;2023-02-01T07:06:05;8.93;;;6.67;;
5869;SDS011;2961;47.702;9.410;2023-02-01T07:08:33;10.77;;;6.77;;
5869;SDS011;2961;47.702;9.410;2023-02-01T07:11:02;10.27;;;7.17;;
5869;SDS011;2961;47.702;9.410;2023-02-01T07:13:29;10.70;;;6.70;;
5869;SDS011;2961;47.702;9.410;2023-02-01T07:15:57;9.73;;;6.40;;
5869;SDS011;2961;47.702;9.410;2023-02-01T07:18:27;9.50;;;6.43;;
5869;SDS011;2961;47.702;9.410;2023-02-01T07:20:55;7.70;;;5.90;;
5869;SDS011;2961;47.702;9.410;2023-02-01T07:23:22;16.63;;;9.80;;
5869;SDS011;2961;47.702;9.410;2023-02-01T07:25:52;12.97;;;7.30;;
5869;SDS011;2961;47.702;9.410;2023-02-01T07:28:19;9.23;;;6.70;;
5869;SDS011;2961;47.702;9.410;2023-02-01T07:30:46;10.80;;;5.90;;
5869;SDS011;2961;47.702;9.410;2023-02-01T07:33:15;10.70;;;6.00;;
5869;SDS011;2961;47.702;9.410;2023-02-01T07:35:45;9.53;;;6.30;;
5869;SDS011;2961;47.702;9.410;2023-02-01T07:38:12;12.13;;;6.70;;
5869;SDS011;2961;47.702;9.410;2023-02-01T07:40:38;9.97;;;5.93;;
5869;SDS011;2961;47.702;9.410;2023-02-01T07:43:05;8.10;;;5.60;;
5869;SDS011;2961;47.702;9.410;2023-02-01T07:45:32;8.00;;;5.77;;
5869;SDS011;2961;47.702;9.410;2023-02-01T07:48:00;13.17;;;7.37;;
5869;SDS011;2961;47.702;9.410;2023-02-01T07:50:27;6.87;;;5.50;;
5869;SDS011;2961;47.702;9.410;2023-02-01T07:52:55;11.63;;;5.07;;
5869;SDS011;2961;47.702;9.410;2023-02-01T07:55:24;16.47;;;6.77;;
5869;SDS011;2961;47.702;9.410;2023-02-01T07:57:51;9.50;;;5.43;;
5869;SDS011;2961;47.702;9.410;2023-02-01T08:00:18;9.60;;;6.20;;
5869;SDS011;2961;47.702;9.410;2023-02-01T08:03:03;8.37;;;6.17;;
5869;SDS011;2961;47.702;9.410;2023-02-01T08:05:30;10.83;;;6.67;;
5869;SDS011;2961;47.702;9.410;2023-02-01T08:07:58;10.70;;;5.90;;
5869;SDS011;2961;47.702;9.410;2023-02-01T08:10:25;8.37;;;6.00;;
5869;SDS011;2961;47.702;9.410;2023-02-01T08:12:57;12.47;;;6.90;;
5869;SDS011;2961;47.702;9.410;2023-02-01T08:15:24;12.37;;;6.27;;
5869;SDS011;2961;47.702;9.410;2023-02-01T08:17:51;9.53;;;6.47;;
5869;SDS011;2961;47.702;9.410;2023-02-01T08:20:19;12.10;;;7.60;;
5869;SDS011;2961;47.702;9.410;2023-02-01T08:22:47;11.47;;;7.07;;
5869;SDS011;2961;47.702;9.410;2023-02-01T08:25:16;10.67;;;6.87;;
5869;SDS011;2961;47.702;9.410;2023-02-01T08:27:43;9.57;;;5.87;;
5869;SDS011;2961;47.702;9.410;2023-02-01T08:30:11;12.30;;;7.33;;
5869;SDS011;2961;47.702;9.410;2023-02-01T08:32:38;10.13;;;6.87;;
5869;SDS011;2961;47.702;9.410;2023-02-01T08:35:05;11.03;;;7.00;;
5869;SDS011;2961;47.702;9.410;2023-02-01T08:37:33;12.40;;;7.30;;
5869;SDS011;2961;47.702;9.410;2023-02-01T08:39:59;8.43;;;6.33;;
5869;SDS011;2961;47.702;9.410;2023-02-01T08:42:28;8.83;;;6.90;;
5869;SDS011;2961;47.702;9.410;2023-02-01T08:45:12;11.50;;;7.60;;
5869;SDS011;2961;47.702;9.410;2023-02-01T08:47:39;15.10;;;8.27;;
5869;SDS011;2961;47.702;9.410;2023-02-01T08:50:06;10.60;;;7.30;;
5869;SDS011;2961;47.702;9.410;2023-02-01T08:52:34;14.53;;;8.00;;
5869;SDS011;2961;47.702;9.410;2023-02-01T08:55:01;11.77;;;7.67;;
5869;SDS011;2961;47.702;9.410;2023-02-01T08:57:29;12.77;;;8.40;;
5869;SDS011;2961;47.702;9.410;2023-02-01T08:59:56;12.10;;;7.20;;
5869;SDS011;2961;47.702;9.410;2023-02-01T09:02:23;12.47;;;8.10;;
5869;SDS011;2961;47.702;9.410;2023-02-01T09:04:49;12.50;;;7.67;;
5869;SDS011;2961;47.702;9.410;2023-02-01T09:07:16;11.87;;;7.80;;
5869;SDS011;2961;47.702;9.410;2023-02-01T09:09:44;13.27;;;7.40;;
5869;SDS011;2961;47.702;9.410;2023-02-01T09:12:11;10.00;;;7.60;;
5869;SDS011;2961;47.702;9.410;2023-02-01T09:14:39;10.27;;;6.57;;
5869;SDS011;2961;47.702;9.410;2023-02-01T09:17:06;10.10;;;7.03;;
5869;SDS011;2961;47.702;9.410;2023-02-01T09:19:33;15.67;;;8.67;;
5869;SDS011;2961;47.702;9.410;2023-02-01T09:21:59;11.60;;;7.00;;
5869;SDS011;2961;47.702;9.410;2023-02-01T09:24:26;10.67;;;7.23;;
5869;SDS011;2961;47.702;9.410;2023-02-01T09:26:53;12.27;;;6.13;;
5869;SDS011;2961;47.702;9.410;2023-02-01T09:29:20;17.80;;;6.73;;
5869;SDS011;2961;47.702;9.410;2023-02-01T09:31:48;9.70;;;6.70;;
5869;SDS011;2961;47.702;9.410;2023-02-01T09:34:15;9.97;;;6.53;;
5869;SDS011;2961;47.702;9.410;2023-02-01T09:36:42;10.97;;;6.10;;
5869;SDS011;2961;47.702;9.410;2023-02-01T09:39:08;12.27;;;7.57;;
5869;SDS011;2961;47.702;9.410;2023-02-01T09:41:38;15.53;;;7.17;;
5869;SDS011;2961;47.702;9.410;2023-02-01T09:44:15;14.37;;;8.97;;
5869;SDS011;2961;47.702;9.410;2023-02-01T09:46:53;14.43;;;7.00;;
5869;SDS011;2961;47.702;9.410;2023-02-01T09:49:22;12.20;;;7.97;;
5869;SDS011;2961;47.702;9.410;2023-02-01T09:51:54;11.50;;;6.13;;
5869;SDS011;2961;47.702;9.410;2023-02-01T09:54:23;9.63;;;7.47;;
5869;SDS011;2961;47.702;9.410;2023-02-01T09:56:53;9.40;;;6.93;;
5869;SDS011;2961;47.702;9.410;2023-02-01T09:59:24;7.97;;;6.10;;
5869;SDS011;2961;47.702;9.410;2023-02-01T10:01:59;8.07;;;6.30;;
5869;SDS011;2961;47.702;9.410;2023-02-01T10:04:28;7.43;;;5.50;;
5869;SDS011;2961;47.702;9.410;2023-02-01T10:06:57;14.37;;;6.37;;
5869;SDS011;2961;47.702;9.410;2023-02-01T10:09:35;7.30;;;5.40;;
5869;SDS011;2961;47.702;9.410;2023-02-01T10:15:14;6.00;;;5.30;;
5869;SDS011;2961;47.702;9.410;2023-02-01T10:18:03;8.90;;;6.43;;
5869;SDS011;2961;47.702;9.410;2023-02-01T10:20:44;9.43;;;5.70;;
5869;SDS011;2961;47.702;9.410;2023-02-01T10:23:24;9.73;;;5.70;;
5869;SDS011;2961;47.702;9.410;2023-02-01T10:26:03;6.20;;;5.47;;
5869;SDS011;2961;47.702;9.410;2023-02-01T10:28:36;7.30;;;5.60;;
5869;SDS011;2961;47.702;9.410;2023-02-01T10:31:03;9.97;;;6.13;;
5869;SDS011;2961;47.702;9.410;2023-02-01T10:33:36;7.33;;;5.00;;
5869;SDS011;2961;47.702;9.410;2023-02-01T10:36:10;10.00;;;5.17;;
5869;SDS011;2961;47.702;9.410;2023-02-01T10:38:42;16.67;;;5.50;;
5869;SDS011;2961;47.702;9.410;2023-02-01T10:41:11;13.27;;;5.93;;
5869;SDS011;2961;47.702;9.410;2023-02-01T10:43:41;6.00;;;4.83;;
5869;SDS011;2961;47.702;9.410;2023-02-01T10:46:09;8.87;;;5.30;;
5869;SDS011;2961;47.702;9.410;2023-02-01T10:48:37;8.63;;;5.10;;
5869;SDS011;2961;47.702;9.410;2023-02-01T10:51:06;8.00;;;5.70;;
5869;SDS011;2961;47.702;9.410;2023-02-01T10:53:39;6.97;;;4.80;;
5869;SDS011;2961;47.702;9.410;2023-02-01T10:56:13;4.60;;;4.10;;
5869;SDS011;2961;47.702;9.410;2023-02-01T10:58:43;4.60;;;4.20;;
5869;SDS011;2961;47.702;9.410;2023-02-01T11:01:16;6.33;;;4.40;;
5869;SDS011;2961;47.702;9.410;2023-02-01T11:03:50;10.77;;;5.63;;
5869;SDS011;2961;47.702;9.410;2023-02-01T11:06:22;6.20;;;4.63;;
5869;SDS011;2961;47.702;9.410;2023-02-01T11:08:54;4.57;;;4.17;;
5869;SDS011;2961;47.702;9.410;2023-02-01T11:11:22;9.77;;;5.07;;
5869;SDS011;2961;47.702;9.410;2023-02-01T11:13:54;4.83;;;4.27;;
5869;SDS011;2961;47.702;9.410;2023-02-01T11:16:28;8.33;;;4.27;;
5869;SDS011;2961;47.702;9.410;2023-02-01T11:21:44;6.10;;;4.13;;
5869;SDS011;2961;47.702;9.410;2023-02-01T11:24:17;4.87;;;4.10;;
5869;SDS011;2961;47.702;9.410;2023-02-01T11:26:49;4.13;;;3.73;;
5869;SDS011;2961;47.702;9.410;2023-02-01T11:29:18;4.53;;;3.60;;
5869;SDS011;2961;47.702;9.410;2023-02-01T11:31:53;5.03;;;4.20;;
5869;SDS011;2961;47.702;9.410;2023-02-01T11:34:24;6.13;;;4.00;;
5869;SDS011;2961;47.702;9.410;2023-02-01T11:36:52;4.43;;;4.03;;
5869;SDS011;2961;47.702;9.410;2023-02-01T11:39:25;5.33;;;4.40;;
5869;SDS011;2961;47.702;9.410;2023-02-01T11:41:56;5.70;;;4.33;;
5869;SDS011;2961;47.702;9.410;2023-02-01T11:44:29;9.67;;;4.40;;
5869;SDS011;2961;47.702;9.410;2023-02-01T11:47:16;4.70;;;4.27;;
5869;SDS011;2961;47.702;9.410;2023-02-01T11:49:47;7.17;;;4.83;;
5869;SDS011;2961;47.702;9.410;2023-02-01T11:52:16;6.30;;;4.23;;
5869;SDS011;2961;47.702;9.410;2023-02-01T11:54:56;7.00;;;4.47;;
5869;SDS011;2961;47.702;9.410;2023-02-01T11:57:42;5.30;;;3.87;;
5869;SDS011;2961;47.702;9.410;2023-02-01T12:00:25;6.60;;;3.90;;
5869;SDS011;2961;47.702;9.410;2023-02-01T12:03:11;3.93;;;3.40;;
5869;SDS011;2961;47.702;9.410;2023-02-01T12:05:55;5.00;;;3.30;;
5869;SDS011;2961;47.702;9.410;2023-02-01T12:11:31;3.47;;;3.17;;
5869;SDS011;2961;47.702;9.410;2023-02-01T12:14:18;3.80;;;2.90;;
5869;SDS011;2961;47.702;9.410;2023-02-01T12:20:15;5.70;;;3.30;;
5869;SDS011;2961;47.702;9.410;2023-02-01T12:22:59;5.03;;;3.00;;
5869;SDS011;2961;47.702;9.410;2023-02-01T12:25:35;9.10;;;3.67;;
5869;SDS011;2961;47.702;9.410;2023-02-01T12:28:18;9.17;;;5.37;;
5869;SDS011;2961;47.702;9.410;2023-02-01T12:31:01;5.37;;;3.73;;
5869;SDS011;2961;47.702;9.410;2023-02-01T12:33:46;6.57;;;3.13;;
5869;SDS011;2961;47.702;9.410;2023-02-01T12:36:22;8.67;;;4.70;;
5869;SDS011;2961;47.702;9.410;2023-02-01T12:39:00;5.10;;;3.10;;
5869;SDS011;2961;47.702;9.410;2023-02-01T12:41:45;9.77;;;2.90;;
5869;SDS011;2961;47.702;9.410;2023-02-01T12:44:21;4.60;;;3.13;;
5869;SDS011;2961;47.702;9.410;2023-02-01T12:47:03;8.00;;;3.50;;
5869;SDS011;2961;47.702;9.410;2023-02-01T12:49:38;8.53;;;4.10;;
5869;SDS011;2961;47.702;9.410;2023-02-01T12:52:12;7.10;;;3.57;;
5869;SDS011;2961;47.702;9.410;2023-02-01T12:54:45;5.63;;;3.20;;
5869;SDS011;2961;47.702;9.410;2023-02-01T12:57:16;10.13;;;4.00;;
5869;SDS011;2961;47.702;9.410;2023-02-01T12:59:48;3.50;;;3.20;;
5869;SDS011;2961;47.702;9.410;2023-02-01T13:02:22;4.83;;;3.20;;
5869;SDS011;2961;47.702;9.410;2023-02-01T13:05:11;5.33;;;3.53;;
5869;SDS011;2961;47.702;9.410;2023-02-01T13:07:42;12.13;;;3.47;;
5869;SDS011;2961;47.702;9.410;2023-02-01T13:10:15;5.20;;;3.47;;
5869;SDS011;2961;47.702;9.410;2023-02-01T13:12:49;10.13;;;3.40;;
5869;SDS011;2961;47.702;9.410;2023-02-01T13:15:21;5.93;;;3.73;;
5869;SDS011;2961;47.702;9.410;2023-02-01T13:17:52;13.60;;;3.73;;
5869;SDS011;2961;47.702;9.410;2023-02-01T13:20:22;4.97;;;3.40;;
5869;SDS011;2961;47.702;9.410;2023-02-01T13:22:54;7.30;;;3.77;;
5869;SDS011;2961;47.702;9.410;2023-02-01T13:25:28;8.87;;;3.73;;
5869;SDS011;2961;47.702;9.410;2023-02-01T13:28:00;10.07;;;3.17;;
5869;SDS011;2961;47.702;9.410;2023-02-01T13:30:53;9.70;;;3.67;;
5869;SDS011;2961;47.702;9.410;2023-02-01T13:36:37;8.63;;;3.70;;
5869;SDS011;2961;47.702;9.410;2023-02-01T13:39:27;13.63;;;3.73;;
5869;SDS011;2961;47.702;9.410;2023-02-01T13:42:19;10.63;;;3.40;;
5869;SDS011;2961;47.702;9.410;2023-02-01T13:44:49;4.77;;;2.40;;
5869;SDS011;2961;47.702;9.410;2023-02-01T13:47:21;5.73;;;2.43;;
5869;SDS011;2961;47.702;9.410;2023-02-01T13:49:52;4.67;;;2.10;;
5869;SDS011;2961;47.702;9.410;2023-02-01T13:52:25;8.43;;;2.53;;
5869;SDS011;2961;47.702;9.410;2023-02-01T13:55:01;13.47;;;2.40;;
5869;SDS011;2961;47.702;9.410;2023-02-01T13:57:51;6.27;;;2.30;;
5869;SDS011;2961;47.702;9.410;2023-02-01T14:00:26;12.80;;;2.50;;
5869;SDS011;2961;47.702;9.410;2023-02-01T14:06:02;7.77;;;2.43;;
5869;SDS011;2961;47.702;9.410;2023-02-01T14:08:42;13.73;;;3.40;;
5869;SDS011;2961;47.702;9.410;2023-02-01T14:11:32;16.83;;;2.20;;
5869;SDS011;2961;47.702;9.410;2023-02-01T14:23:26;9.33;;;2.57;;
5869;SDS011;2961;47.702;9.410;2023-02-01T14:26:06;9.43;;;2.30;;
5869;SDS011;2961;47.702;9.410;2023-02-01T14:28:36;7.13;;;2.73;;
5869;SDS011;2961;47.702;9.410;2023-02-01T14:31:14;7.43;;;2.40;;
5869;SDS011;2961;47.702;9.410;2023-02-01T14:33:44;13.80;;;2.50;;
5869;SDS011;2961;47.702;9.410;2023-02-01T14:36:13;11.37;;;3.00;;
5869;SDS011;2961;47.702;9.410;2023-02-01T14:38:46;11.33;;;2.93;;
5869;SDS011;2961;47.702;9.410;2023-02-01T14:41:25;13.90;;;2.70;;
5869;SDS011;2961;47.702;9.410;2023-02-01T14:44:14;12.50;;;3.50;;
5869;SDS011;2961;47.702;9.410;2023-02-01T14:47:02;8.27;;;3.70;;
5869;SDS011;2961;47.702;9.410;2023-02-01T14:49:33;8.73;;;3.00;;
5869;SDS011;2961;47.702;9.410;2023-02-01T14:52:05;10.37;;;3.70;;
5869;SDS011;2961;47.702;9.410;2023-02-01T14:54:37;10.07;;;2.40;;
5869;SDS011;2961;47.702;9.410;2023-02-01T14:57:09;13.33;;;2.40;;
5869;SDS011;2961;47.702;9.410;2023-02-01T14:59:41;19.07;;;6.50;;
5869;SDS011;2961;47.702;9.410;2023-02-01T15:02:15;17.90;;;2.10;;
5869;SDS011;2961;47.702;9.410;2023-02-01T15:04:50;11.43;;;3.40;;
5869;SDS011;2961;47.702;9.410;2023-02-01T15:07:20;13.03;;;3.93;;
5869;SDS011;2961;47.702;9.410;2023-02-01T15:09:49;10.60;;;2.57;;
5869;SDS011;2961;47.702;9.410;2023-02-01T15:12:17;8.40;;;2.57;;
5869;SDS011;2961;47.702;9.410;2023-02-01T15:15:02;8.93;;;3.00;;
5869;SDS011;2961;47.702;9.410;2023-02-01T15:17:38;4.20;;;2.03;;
5869;SDS011;2961;47.702;9.410;2023-02-01T15:20:13;4.13;;;2.57;;
5869;SDS011;2961;47.702;9.410;2023-02-01T15:22:41;13.90;;;2.50;;
5869;SDS011;2961;47.702;9.410;2023-02-01T15:25:18;10.88;;;3.00;;
5869;SDS011;2961;47.702;9.410;2023-02-01T15:27:46;9.43;;;3.43;;
5869;SDS011;2961;47.702;9.410;2023-02-01T15:30:16;6.53;;;2.10;;
5869;SDS011;2961;47.702;9.410;2023-02-01T15:32:44;9.27;;;2.47;;
5869;SDS011;2961;47.702;9.410;2023-02-01T15:35:32;5.53;;;2.30;;
5869;SDS011;2961;47.702;9.410;2023-02-01T15:40:59;13.13;;;2.50;;
5869;SDS011;2961;47.702;9.410;2023-02-01T15:43:28;11.67;;;3.57;;
5869;SDS011;2961;47.702;9.410;2023-02-01T15:45:57;6.63;;;3.43;;
5869;SDS011;2961;47.702;9.410;2023-02-01T15:48:26;12.53;;;2.80;;
5869;SDS011;2961;47.702;9.410;2023-02-01T15:50:58;9.93;;;2.77;;
5869;SDS011;2961;47.702;9.410;2023-02-01T15:53:25;11.40;;;2.90;;
5869;SDS011;2961;47.702;9.410;2023-02-01T15:55:56;6.83;;;2.70;;
5869;SDS011;2961;47.702;9.410;2023-02-01T15:58:26;8.00;;;2.57;;
5869;SDS011;2961;47.702;9.410;2023-02-01T16:00:57;10.60;;;3.30;;
5869;SDS011;2961;47.702;9.410;2023-02-01T16:03:27;8.13;;;2.90;;
5869;SDS011;2961;47.702;9.410;2023-02-01T16:06:03;17.03;;;3.60;;
5869;SDS011;2961;47.702;9.410;2023-02-01T16:08:32;16.17;;;3.57;;